Date,TemperatureHighF,TemperatureAvgF,TemperatureLowF,DewpointHighF,DewpointAvgF,DewpointLowF,HumidityHigh,HumidityAvg,HumidityLow,PressureMaxIn,PressureMinIn,WindSpeedMaxMPH,WindSpeedAvgMPH,GustSpeedMaxMPH,PrecipitationSumIn
2014-1-1,65,49,35,-100,-100,-100,0,0,100,0.00,40.00,4,2,6,0.00
2014-1-2,66,47,37,-100,-100,-100,0,0,100,0.00,40.00,3,2,3,0.00
2014-1-3,65,50,37,-100,-100,-100,0,0,100,0.00,40.00,7,4,7,0.00
2014-1-4,64,45,40,-100,-100,-100,0,0,100,0.00,40.00,5,2,7,0.00
2014-1-5,58,46,35,-100,-100,-100,0,0,100,0.00,40.00,5,2,5,0.00
2014-1-6,60,41,29,-100,-100,-100,0,0,100,0.00,40.00,3,2,5,0.00
2014-1-7,60,47,39,-100,-100,-100,0,0,100,0.00,40.00,8,4,8,0.00
2014-1-8,63,54,49,-100,-100,-100,0,0,100,0.00,40.00,7,5,11,0.00
2014-1-9,48,44,40,-100,-100,-100,0,0,100,0.00,40.00,7,6,10,0.00
2014-1-10,58,47,39,-100,-100,-100,0,0,100,0.00,40.00,7,4,11,0.00
2014-1-11,67,47,38,-100,-100,-100,0,0,100,0.00,40.00,11,6,11,0.00
2014-1-12,51,45,35,-100,-100,-100,0,0,100,0.00,40.00,6,3,10,0.00
2014-1-13,60,45,35,-100,-100,-100,0,0,100,0.00,40.00,3,1,4,0.00
2014-1-14,67,50,35,-100,-100,-100,0,0,100,0.00,40.00,5,1,6,0.00
2014-1-15,68,50,40,-100,-100,-100,0,0,100,0.00,40.00,2,1,4,0.00
2014-1-16,68,52,35,-100,-100,-100,0,0,100,0.00,40.00,4,2,5,0.00
2014-1-17,67,46,33,-100,-100,-100,0,0,100,0.00,40.00,5,2,5,0.00
2014-1-18,66,39,34,-100,-100,-100,0,0,100,0.00,40.00,4,2,5,0.00
2014-1-19,69,48,36,-100,-100,-100,0,0,100,0.00,40.00,3,2,4,0.00
2014-1-20,66,48,34,-100,-100,-100,0,0,100,0.00,40.00,5,3,6,0.00
2014-1-21,65,51,39,-100,-100,-100,0,0,100,0.00,40.00,3,2,4,0.00
2014-1-22,68,51,43,-100,-100,-100,0,0,100,0.00,40.00,3,2,5,0.00
2014-1-23,62,52,36,-100,-100,-100,0,0,100,0.00,40.00,8,5,9,0.00
2014-1-24,61,60,59,-100,-100,-100,0,0,100,0.00,40.00,4,4,7,0.00
2014-1-25,65,56,43,-100,-100,-100,0,0,100,0.00,40.00,4,2,5,0.00
2014-1-26,60,48,40,-100,-100,-100,0,0,100,0.00,40.00,8,4,8,0.00
2014-1-27,65,52,43,-100,-100,-100,0,0,100,0.00,40.00,8,5,8,0.00
2014-1-28,66,52,44,-100,-100,-100,0,0,100,0.00,40.00,8,5,9,0.00
2014-1-29,69,56,49,-100,-100,-100,0,0,100,0.00,40.00,7,4,10,0.00
2014-1-30,57,53,47,-100,-100,-100,0,0,100,0.00,40.00,6,4,12,0.00
2014-1-31,47,43,40,-100,-100,-100,0,0,100,0.00,40.00,7,4,11,0.00
2014-2-1,50,40,32,-100,-100,-100,0,0,100,0.00,40.00,5,3,6,0.00
2014-2-2,51,37,27,-100,-100,-100,0,0,100,0.00,40.00,4,2,8,0.00
2014-2-3,44,40,33,-100,-100,-100,0,0,100,0.00,40.00,8,6,11,0.00
2014-2-4,48,43,40,-100,-100,-100,0,0,100,0.00,40.00,8,5,9,0.00
2014-2-5,48,42,36,-100,-100,-100,0,0,100,0.00,40.00,7,5,12,0.00
2014-2-6,48,44,38,-100,-100,-100,0,0,100,0.00,40.00,6,4,8,0.00
2014-2-7,53,47,44,-100,-100,-100,0,0,100,0.00,40.00,8,5,13,0.00
2014-2-8,59,52,46,-100,-100,-100,0,0,100,0.00,40.00,9,7,12,0.00
2014-2-9,61,55,53,-100,-100,-100,0,0,100,0.00,40.00,7,4,11,0.00
2014-2-10,61,55,52,-100,-100,-100,0,0,100,0.00,40.00,7,5,11,0.00
2014-2-11,65,54,47,-100,-100,-100,0,0,100,0.00,40.00,9,4,11,0.00
2014-2-12,73,55,45,-100,-100,-100,0,0,100,0.00,40.00,10,5,10,0.00
2014-2-13,76,62,54,-100,-100,-100,0,0,100,0.00,40.00,5,4,9,0.00
2014-2-14,77,67,51,-100,-100,-100,0,0,100,0.00,40.00,12,5,12,0.00
2014-2-15,76,66,61,-100,-100,-100,0,0,100,0.00,40.00,6,4,8,0.00
2014-2-16,65,58,43,-100,-100,-100,0,0,100,0.00,40.00,7,5,11,0.00
2014-2-17,67,50,37,-100,-100,-100,0,0,100,0.00,40.00,7,3,11,0.00
2014-2-18,69,54,46,-100,-100,-100,0,0,100,0.00,40.00,8,5,12,0.00
2014-2-19,57,51,47,-100,-100,-100,0,0,100,0.00,40.00,10,6,15,0.00
2014-2-20,63,53,46,-100,-100,-100,0,0,100,0.00,40.00,6,3,9,0.00
2014-2-21,65,50,41,-100,-100,-100,0,0,100,0.00,40.00,6,4,7,0.00
2014-2-22,62,52,45,-100,-100,-100,0,0,100,0.00,40.00,6,3,7,0.00
2014-2-23,71,53,39,-100,-100,-100,0,0,100,0.00,40.00,4,3,7,0.00
2014-2-24,72,55,39,-100,-100,-100,0,0,100,0.00,40.00,5,3,5,0.00
2014-2-25,73,53,40,-100,-100,-100,0,0,100,0.00,40.00,3,2,6,0.00
2014-2-26,55,50,45,-100,-100,-100,0,0,100,0.00,40.00,6,3,6,0.00
2014-2-27,62,55,50,-100,-100,-100,0,0,100,0.00,40.00,5,3,10,0.00
2014-2-28,55,50,47,-100,-100,-100,0,0,100,0.00,40.00,5,3,8,0.00
2014-3-1,50,48,46,-100,-100,-100,0,0,100,0.00,40.00,3,1,7,0.00
2014-3-2,56,49,40,-100,-100,-100,0,0,100,0.00,40.00,4,3,7,0.00
2014-3-3,60,54,44,-100,-100,-100,0,0,100,0.00,40.00,6,3,8,0.00
2014-3-4,59,54,47,-100,-100,-100,0,0,100,0.00,40.00,6,3,10,0.00
2014-3-5,63,51,42,-100,-100,-100,0,0,100,0.00,40.00,5,3,7,0.00
2014-3-6,64,58,51,-100,-100,-100,0,0,100,0.00,40.00,7,6,13,0.00
2014-3-7,58,51,43,-100,-100,-100,0,0,100,0.00,40.00,7,4,14,0.00
2014-3-8,69,56,40,-100,-100,-100,0,0,100,0.00,40.00,6,3,8,0.00
2014-3-9,69,60,48,-100,-100,-100,0,0,100,0.00,40.00,6,2,6,0.00
2014-3-10,66,58,50,-100,-100,-100,0,0,100,0.00,40.00,12,5,12,0.00
2014-3-11,64,57,47,-100,-100,-100,0,0,100,0.00,40.00,5,4,11,0.00
2014-3-12,62,57,52,-100,-100,-100,0,0,100,0.00,40.00,11,7,11,0.00
2014-3-13,66,55,47,-100,-100,-100,0,0,100,0.00,40.00,5,2,6,0.00
2014-3-14,71,58,44,-100,-100,-100,0,0,100,0.00,40.00,6,5,10,0.00
2014-3-15,74,60,50,-100,-100,-100,0,0,100,0.00,40.00,6,4,8,0.00
2014-3-16,76,53,43,-100,-100,-100,0,0,100,0.00,40.00,4,3,6,0.00
2014-3-17,65,60,56,-100,-100,-100,0,0,100,0.00,40.00,10,8,13,0.00
2014-3-18,64,54,42,-100,-100,-100,0,0,100,0.00,40.00,7,5,8,0.00
2014-3-19,69,59,47,-100,-100,-100,0,0,100,0.00,40.00,6,2,7,0.00
2014-3-20,74,56,43,-100,-100,-100,0,0,100,0.00,40.00,4,3,7,0.00
2014-3-21,72,63,54,-100,-100,-100,0,0,100,0.00,40.00,8,6,9,0.00
2014-3-22,70,58,57,-100,-100,-100,0,0,100,0.00,40.00,6,4,9,0.00
2014-3-23,75,58,47,-100,-100,-100,0,0,100,0.00,40.00,5,4,7,0.00
2014-3-24,76,61,49,-100,-100,-100,0,0,100,0.00,40.00,6,4,7,0.00
2014-3-25,69,56,47,-100,-100,-100,0,0,100,0.00,40.00,6,5,10,0.00
2014-3-26,54,50,47,-100,-100,-100,0,0,100,0.00,40.00,10,6,12,0.00
2014-3-27,53,48,44,-100,-100,-100,0,0,100,0.00,40.00,10,6,11,0.00
2014-3-28,66,55,48,-100,-100,-100,0,0,100,0.00,40.00,8,4,12,0.00
2014-3-29,73,55,45,-100,-100,-100,0,0,100,0.00,40.00,7,4,9,0.00
2014-3-30,54,48,43,-100,-100,-100,0,0,100,0.00,40.00,9,5,13,0.00
2014-3-31,62,50,43,-100,-100,-100,0,0,100,0.00,40.00,6,4,9,0.00
2014-4-1,51,42,39,-100,-100,-100,0,0,100,0.00,40.00,10,5,10,0.00
2014-4-2,51,44,39,-100,-100,-100,0,0,100,0.00,40.00,5,3,10,0.00
2014-4-3,63,47,40,-100,-100,-100,0,0,100,0.00,40.00,4,3,7,0.00
2014-4-4,60,51,46,-100,-100,-100,0,0,100,0.00,40.00,6,3,9,0.00
2014-4-5,51,43,45,-100,-100,-100,0,0,100,0.00,40.00,7,4,11,0.00
2014-4-6,67,54,47,-100,-100,-100,0,0,100,0.00,40.00,4,3,7,0.00
2014-4-7,73,54,43,-100,-100,-100,0,0,100,0.00,40.00,5,3,8,0.00
2014-4-8,83,64,47,-100,-100,-100,0,0,100,0.00,40.00,3,2,5,0.00
2014-4-9,69,61,54,-100,-100,-100,0,0,100,0.00,40.00,6,4,7,0.00
2014-4-10,70,62,59,-100,-100,-100,0,0,100,0.00,40.00,5,4,7,0.00
2014-4-11,83,73,65,-100,-100,-100,0,0,100,0.00,40.00,5,3,7,0.00
2014-4-12,72,56,60,-100,-100,-100,0,0,100,0.00,40.00,8,5,11,0.00
2014-4-13,73,66,58,-100,-100,-100,0,0,100,0.00,40.00,8,6,10,0.00
2014-4-14,76,64,53,-100,-100,-100,0,0,100,0.00,40.00,6,3,9,0.00
2014-4-15,75,65,57,-100,-100,-100,0,0,100,0.00,40.00,8,5,12,0.00
2014-4-16,79,71,62,-100,-100,-100,0,0,100,0.00,40.00,9,6,13,0.00
2014-4-17,83,64,55,-100,-100,-100,0,0,100,0.00,40.00,5,4,7,0.00
2014-4-18,74,65,59,-100,-100,-100,0,0,100,0.00,40.00,5,4,6,0.00
2014-4-19,76,59,58,-100,-100,-100,0,0,100,0.00,40.00,5,4,9,0.00
2014-4-20,79,67,58,-100,-100,-100,0,0,100,0.00,40.00,8,4,10,0.00
2014-4-21,80,60,47,-100,-100,-100,0,0,100,0.00,40.00,7,6,9,0.00
2014-4-22,62,58,54,-100,-100,-100,0,0,100,0.00,40.00,11,5,15,0.00
2014-4-23,66,54,46,-100,-100,-100,0,0,100,0.00,40.00,6,4,12,0.00
2014-4-24,69,58,50,-100,-100,-100,0,0,100,0.00,40.00,8,4,9,0.00
2014-4-25,65,57,50,-100,-100,-100,0,0,100,0.00,40.00,8,4,13,0.00
2014-4-26,47,37,38,-100,-100,-100,0,0,100,0.00,40.00,10,8,12,0.00
2014-4-27,58,51,46,-100,-100,-100,0,0,100,0.00,40.00,12,6,14,0.00
2014-4-28,66,58,52,-100,-100,-100,0,0,100,0.00,40.00,9,5,9,0.00
2014-4-29,78,70,51,-100,-100,-100,0,0,100,0.00,40.00,5,3,10,0.00
2014-4-30,77,63,51,-100,-100,-100,0,0,100,0.00,40.00,7,4,9,0.00
2014-5-1,82,60,50,-100,-100,-100,0,0,100,0.00,40.00,3,2,6,0.00
2014-5-2,87,75,64,-100,-100,-100,0,0,100,0.00,40.00,5,4,8,0.00
2014-5-3,85,64,65,-100,-100,-100,0,0,100,0.00,40.00,8,5,9,0.00
2014-5-4,80,70,57,-100,-100,-100,0,0,100,0.00,40.00,9,5,10,0.00
2014-5-5,69,63,56,-100,-100,-100,0,0,100,0.00,40.00,10,6,11,0.00
2014-5-6,54,50,43,-100,-100,-100,0,0,100,0.00,40.00,8,5,13,0.00
2014-5-13,81,70,55,-100,-100,-100,0,0,100,0.00,40.00,2,1,5,0.00
2014-5-14,86,67,49,-100,-100,-100,0,0,100,0.00,40.00,4,2,10,0.00
2014-5-15,91,74,53,-100,-100,-100,0,0,100,0.00,40.00,5,3,6,0.00
2014-5-16,88,79,72,-100,-100,-100,0,0,100,0.00,40.00,10,4,11,0.00
2014-5-17,89,71,69,-100,-100,-100,0,0,100,0.00,40.00,13,7,13,0.00
2014-5-18,73,67,60,-100,-100,-100,0,0,100,0.00,40.00,8,5,15,0.00
2014-5-19,73,61,55,-100,-100,-100,0,0,100,0.00,40.00,7,5,9,0.00
2014-5-20,62,56,51,-100,-100,-100,0,0,100,0.00,40.00,11,6,12,0.00
2014-5-21,70,62,52,-100,-100,-100,0,0,100,0.00,40.00,6,4,11,0.00
2014-5-22,70,62,52,-100,-100,-100,0,0,100,0.00,40.00,4,3,7,0.00
2014-5-23,79,69,57,-100,-100,-100,0,0,100,0.00,40.00,8,5,10,0.00
2014-5-24,84,72,66,-100,-100,-100,0,0,100,0.00,40.00,10,5,11,0.00
2014-5-25,92,81,72,-100,-100,-100,0,0,100,0.00,40.00,6,3,9,0.00
2014-5-26,91,82,74,-100,-100,-100,0,0,100,0.00,40.00,7,5,11,0.00
2014-5-27,90,81,73,-100,-100,-100,0,0,100,0.00,40.00,7,4,9,0.00
2014-5-28,79,73,65,-100,-100,-100,0,0,100,0.00,40.00,8,6,13,0.00
2014-5-29,84,72,60,-100,-100,-100,0,0,100,0.00,40.00,6,4,9,0.00
2014-5-30,91,72,58,-100,-100,-100,0,0,100,0.00,40.00,6,4,8,0.00
2014-5-31,87,72,62,-100,-100,-100,0,0,100,0.00,40.00,8,5,11,0.00
2014-6-1,91,78,61,-100,-100,-100,0,0,100,0.00,40.00,6,4,9,0.00
2014-6-2,89,74,56,-100,-100,-100,0,0,100,0.00,40.00,4,3,9,0.00
2014-6-3,89,75,60,-100,-100,-100,0,0,100,0.00,40.00,7,4,8,0.00
2014-6-4,88,76,63,-100,-100,-100,0,0,100,0.00,40.00,8,5,9,0.00
2014-6-5,93,81,68,-100,-100,-100,0,0,100,0.00,40.00,8,4,10,0.00
2014-6-6,89,81,73,-100,-100,-100,0,0,100,0.00,40.00,9,4,9,0.00
2014-6-7,93,78,73,-100,-100,-100,0,0,100,0.00,40.00,10,5,10,0.00
2014-6-8,102,88,77,-100,-100,-100,0,0,100,0.00,40.00,5,3,7,0.00
2014-6-9,102,88,69,-100,-100,-100,0,0,100,0.00,40.00,7,3,7,0.00
2014-6-10,98,85,66,-100,-100,-100,0,0,100,0.00,40.00,5,3,6,0.00
2014-6-11,91,83,76,-100,-100,-100,0,0,100,0.00,40.00,6,4,11,0.00
2014-6-12,93,82,71,-100,-100,-100,0,0,100,0.00,40.00,8,5,11,0.00
2014-6-13,82,74,65,-100,-100,-100,0,0,100,0.00,40.00,11,6,13,0.00
2014-6-14,85,72,65,-100,-100,-100,0,0,100,0.00,40.00,7,4,9,0.00
2014-6-15,86,76,67,-100,-100,-100,0,0,100,0.00,40.00,9,5,12,0.00
2014-6-16,80,71,62,-100,-100,-100,0,0,100,0.00,40.00,10,5,13,0.00
2014-6-17,77,69,58,-100,-100,-100,0,0,100,0.00,40.00,7,5,11,0.00
2014-6-18,83,72,59,-100,-100,-100,0,0,100,0.00,40.00,6,4,11,0.00
2014-6-19,91,78,62,-100,-100,-100,0,0,100,0.00,40.00,4,3,6,0.00
2014-6-20,91,82,66,-100,-100,-100,0,0,100,0.00,40.00,11,5,11,0.00
2014-6-21,94,80,76,-100,-100,-100,0,0,100,0.00,40.00,7,4,10,0.00
2014-6-22,91,81,69,-100,-100,-100,0,0,100,0.00,40.00,8,4,10,0.00
2014-6-23,91,80,72,-100,-100,-100,0,0,100,0.00,40.00,8,5,10,0.00
2014-6-24,89,81,73,-100,-100,-100,0,0,100,0.00,40.00,7,4,12,0.00
2014-6-25,86,78,73,-100,-100,-100,0,0,100,0.00,40.00,9,6,14,0.00
2014-6-26,78,71,65,-100,-100,-100,0,0,100,0.00,40.00,13,6,13,0.00
2014-6-27,81,72,66,-100,-100,-100,0,0,100,0.00,40.00,13,6,13,0.00
2014-6-28,89,78,71,-100,-100,-100,0,0,100,0.00,40.00,8,5,11,0.00
2014-6-29,98,88,75,-100,-100,-100,0,0,100,0.00,40.00,7,3,8,0.00
2014-6-30,105,91,75,-100,-100,-100,0,0,100,0.00,40.00,6,3,8,0.00
2014-7-1,105,92,75,-100,-100,-100,0,0,100,0.00,40.00,6,4,9,0.00
2014-7-2,104,89,76,-100,-100,-100,0,0,100,0.00,40.00,6,4,8,0.00
2014-7-3,100,90,73,-100,-100,-100,0,0,100,0.00,40.00,7,4,7,0.00
2014-7-4,98,88,66,-100,-100,-100,0,0,100,0.00,40.00,7,4,7,0.00
2014-7-5,99,84,72,-100,-100,-100,0,0,100,0.00,40.00,6,3,7,0.00
2014-7-6,97,89,79,-100,-100,-100,0,0,100,0.00,40.00,5,3,9,0.00
2014-7-7,101,89,74,-100,-100,-100,0,0,100,0.00,40.00,5,4,10,0.00
2014-7-8,102,90,74,-100,-100,-100,0,0,100,0.00,40.00,6,4,7,0.00
2014-7-9,99,90,74,-100,-100,-100,0,0,100,0.00,40.00,6,4,8,0.00
2014-7-10,96,83,71,-100,0,200,0,0,100,0.00,40.00,6,4,8,0.00
2014-7-11,91,80,69,-100,0,200,0,0,100,0.00,40.00,7,3,7,0.00
2014-7-12,98,80,69,-100,0,200,0,0,100,0.00,40.00,6,3,7,0.00
2014-7-13,104,89,71,-100,0,200,0,0,100,0.00,40.00,6,4,8,0.00
2014-7-14,97,89,80,-100,0,200,0,0,100,0.00,40.00,5,2,7,0.00
2014-7-15,96,88,75,-100,0,200,0,0,100,0.00,40.00,5,3,6,0.00
2014-7-16,96,85,72,-100,0,200,0,0,100,0.00,40.00,5,3,9,0.00
2014-7-17,93,82,70,-100,0,200,0,0,100,0.00,40.00,6,3,9,0.00
2014-7-18,94,80,67,-100,0,200,0,0,100,0.00,40.00,6,3,7,0.00
2014-7-19,91,75,71,-100,0,200,0,0,100,0.00,40.00,5,2,7,0.00
2014-7-20,92,80,69,-100,0,200,0,0,100,0.00,40.00,5,2,7,0.00
2014-7-21,91,80,67,-100,0,200,0,0,100,0.00,40.00,5,3,8,0.00
2014-7-22,92,83,69,-100,0,200,0,0,100,0.00,40.00,5,3,7,0.00
2014-7-23,92,80,69,-100,0,200,0,0,100,0.00,40.00,9,6,10,0.00
2014-7-24,95,80,69,-100,0,200,0,0,100,0.00,40.00,7,5,10,0.00
2014-7-25,100,83,67,-100,0,200,0,0,100,0.00,40.00,6,4,8,0.00
2014-7-26,103,93,76,-100,0,200,0,0,100,0.00,40.00,6,3,9,0.00
2014-7-27,102,95,86,-100,0,200,0,0,100,0.00,40.00,5,3,6,0.00
2014-7-28,89,84,79,-100,0,200,0,0,100,0.00,40.00,4,2,6,0.00
2014-7-29,96,89,77,-100,0,200,0,0,100,0.00,40.00,5,3,9,0.00
2014-7-30,97,88,82,-100,0,200,0,0,100,0.00,40.00,6,4,9,0.00
2014-7-31,97,88,78,-100,0,200,0,0,100,0.00,40.00,4,3,6,0.00
2014-8-1,102,91,76,-100,0,200,0,0,100,0.00,40.00,5,3,7,0.00
2014-8-2,95,87,76,-100,0,200,0,0,100,0.00,40.00,5,3,7,0.00
2014-8-3,86,76,71,-100,0,200,0,0,100,0.00,40.00,4,1,9,0.00
2014-8-4,91,79,70,-100,0,200,0,0,100,0.00,40.00,6,3,9,0.00
2014-8-5,94,80,70,-100,0,200,0,0,100,0.00,40.00,5,3,9,0.00
2014-8-6,87,78,70,-100,0,200,0,0,100,0.00,40.00,6,5,8,0.00
2014-8-14,94,74,62,-100,0,200,0,0,100,0.00,40.00,6,3,8,0.00
2014-8-15,94,78,60,-100,0,200,0,0,100,0.00,40.00,5,3,8,0.00
2014-8-16,97,82,65,-100,0,200,0,0,100,0.00,40.00,8,4,10,0.00
2014-8-17,98,83,72,-100,0,200,0,0,100,0.00,40.00,6,4,7,0.00
2014-8-18,94,84,73,-100,0,200,0,0,100,0.00,40.00,5,3,8,0.00
2014-8-19,77,73,72,-100,0,200,0,0,100,0.00,40.00,4,3,6,0.00
2014-8-20,88,75,58,-100,0,200,0,0,100,0.00,40.00,4,3,5,0.00
2014-10-1,83,67,57,-100,0,200,0,0,100,0.00,40.00,7,5,7,0.00
2014-10-2,83,66,50,-100,0,200,0,0,100,0.00,40.00,7,2,8,0.00
2014-10-3,88,68,49,-100,0,200,0,0,100,0.00,40.00,3,2,4,0.00
2014-10-4,93,70,54,-100,0,200,0,0,100,0.00,40.00,5,3,6,0.00
2014-10-5,91,71,57,-100,0,200,0,0,100,0.00,40.00,5,3,5,0.00
2014-10-6,91,72,58,-100,0,200,0,0,100,0.00,40.00,4,3,6,0.00
2014-10-7,88,70,62,-100,0,200,0,0,100,0.00,40.00,4,3,6,0.00
2014-10-16,77,63,53,-100,0,200,0,0,100,0.00,40.00,6,4,11,0.00
2014-10-17,73,57,47,-100,0,200,0,0,100,0.00,40.00,6,4,9,0.00
2014-10-18,70,61,54,-100,0,200,0,0,100,0.00,40.00,5,3,7,0.00
2014-10-19,83,62,48,-100,0,200,0,0,100,0.00,40.00,5,3,6,0.00
2014-10-20,80,63,54,-100,0,200,0,0,100,0.00,40.00,6,4,8,0.00
2014-10-21,64,59,55,-100,0,200,0,0,100,0.00,40.00,10,7,13,0.00
2014-10-22,80,61,52,-100,0,200,0,0,100,0.00,40.00,5,3,14,0.00
2014-10-25,78,67,56,-100,0,200,0,0,100,0.00,40.00,7,4,9,0.00
2014-10-26,62,57,54,-100,0,200,0,0,100,0.00,40.00,11,7,14,0.00
2014-10-27,65,55,49,-100,0,200,0,0,100,0.00,40.00,8,4,8,0.00
2014-10-28,76,55,42,-100,0,200,0,0,100,0.00,40.00,4,2,5,0.00
2014-10-29,80,61,46,-100,0,200,0,0,100,0.00,40.00,3,2,4,0.00
2014-10-30,77,62,49,-100,0,200,0,0,100,0.00,40.00,4,2,7,0.00
2014-10-31,70,58,49,-100,0,200,0,0,100,0.00,40.00,5,2,9,0.00
2014-11-1,56,50,47,-100,0,200,0,0,100,0.00,40.00,5,4,9,0.00
2014-11-2,56,49,46,-100,0,200,0,0,100,0.00,40.00,7,4,10,0.00
2014-11-3,61,49,38,-100,0,200,0,0,100,0.00,40.00,4,2,6,0.00
2014-11-4,68,51,36,-100,0,200,0,0,100,0.00,40.00,2,2,4,0.00
2014-11-5,73,58,43,-100,0,200,0,0,100,0.00,40.00,5,2,6,0.00
2014-11-6,77,60,47,-100,0,200,0,0,100,0.00,40.00,3,2,5,0.00
2014-11-7,76,55,48,-100,0,200,0,0,100,0.00,40.00,4,2,4,0.00
2014-11-8,80,57,47,-100,0,200,0,0,100,0.00,40.00,4,2,5,0.00
2014-11-9,53,50,48,-100,0,200,0,0,100,0.00,40.00,4,3,5,0.00
2014-11-10,77,69,62,-100,0,200,0,0,100,0.00,40.00,6,4,11,0.00
2014-11-11,58,57,56,-100,0,200,0,0,100,0.00,40.00,5,5,9,0.00
2014-11-12,62,56,51,-100,0,200,0,0,100,0.00,40.00,7,5,11,0.00
2014-11-13,61,59,57,-100,0,200,0,0,100,0.00,40.00,9,4,10,0.00
2014-11-14,61,56,53,-100,0,200,0,0,100,0.00,40.00,6,3,11,0.00
2014-11-15,60,54,48,-100,0,200,0,0,100,0.00,40.00,8,5,16,0.00
2014-11-16,58,50,41,-100,0,200,0,0,100,0.00,40.00,5,3,7,0.00
2014-11-17,60,53,45,-100,0,200,0,0,100,0.00,40.00,5,2,7,0.00
2014-11-18,64,57,50,-100,0,200,0,0,100,0.00,40.00,5,3,8,0.00
2014-11-19,69,58,48,-100,0,200,0,0,100,0.00,40.00,5,2,8,0.00
2014-11-20,65,55,49,-100,0,200,0,0,100,0.00,40.00,5,3,8,0.00
2014-11-21,54,50,45,-100,0,200,0,0,100,0.00,40.00,6,4,10,0.00
2014-11-22,59,52,45,-100,0,200,0,0,100,0.00,40.00,13,7,17,0.00
2014-11-23,62,52,41,-100,0,200,0,0,100,0.00,40.00,8,3,9,0.00
2014-11-24,63,47,34,-100,0,200,0,0,100,0.00,40.00,5,2,6,0.00
2014-11-25,65,43,34,-100,0,200,0,0,100,0.00,40.00,4,2,4,0.00
2014-11-26,75,56,40,-100,0,200,0,0,100,0.00,40.00,4,2,4,0.00
2014-11-27,75,51,40,-100,0,200,0,0,100,0.00,40.00,4,2,4,0.00
2014-11-28,62,51,43,-100,0,200,0,0,100,0.00,40.00,5,3,5,0.00
2014-11-29,58,51,47,-100,0,200,0,0,100,0.00,40.00,4,3,5,0.00
2014-11-30,60,54,47,-100,0,200,0,0,100,0.00,40.00,8,3,8,0.00
2014-12-1,60,50,39,-100,0,200,0,0,100,0.00,40.00,5,3,6,0.00
2014-12-2,56,53,51,-100,0,200,0,0,100,0.00,40.00,7,5,8,0.00
2014-12-3,59,54,51,-100,0,200,0,0,100,0.00,40.00,3,2,5,0.00
2014-12-4,62,52,44,-100,0,200,0,0,100,0.00,40.00,3,2,7,0.00
2014-12-5,58,53,43,-100,0,200,0,0,100,0.00,40.00,5,2,7,0.00
2014-12-6,61,51,43,-100,0,200,0,0,100,0.00,40.00,3,1,4,0.00
2014-12-7,62,50,40,-100,0,200,0,0,100,0.00,40.00,4,1,4,0.00
2014-12-8,63,49,41,-100,0,200,0,0,100,0.00,40.00,3,2,4,0.00
2014-12-9,65,49,38,-100,0,200,0,0,100,0.00,40.00,3,2,4,0.00
2014-12-10,62,50,40,-100,0,200,0,0,100,0.00,40.00,1,1,3,0.00
2014-12-11,60,54,47,-100,0,200,0,0,100,0.00,40.00,4,2,6,0.00
2014-12-12,51,47,43,-100,0,200,0,0,100,0.00,40.00,5,3,8,0.00
2014-12-13,47,44,42,-100,0,200,0,0,100,0.00,40.00,9,4,9,0.00
2014-12-14,51,42,35,-100,0,200,0,0,100,0.00,40.00,3,2,3,0.00
2014-12-15,49,47,45,-100,0,200,0,0,100,0.00,40.00,4,3,6,0.00
2014-12-16,53,48,42,-100,0,200,0,0,100,0.00,40.00,2,1,4,0.00
2014-12-17,47,45,44,-100,0,200,0,0,100,0.00,40.00,8,4,8,0.00
2014-12-18,51,44,37,-100,0,200,0,0,100,0.00,40.00,4,2,6,0.00
2014-12-19,40,39,38,-100,0,200,0,0,100,0.00,40.00,3,2,5,0.00
2014-12-20,54,40,48,-100,0,200,0,0,100,0.00,40.00,6,3,11,0.00
2014-12-21,56,53,50,-100,0,200,0,0,100,0.00,40.00,8,6,12,0.00
2014-12-22,60,54,49,-100,0,200,0,0,100,0.00,40.00,7,5,11,0.00
2014-12-23,66,53,43,-100,0,200,0,0,100,0.00,40.00,5,2,5,0.00
2014-12-24,60,47,40,-100,0,200,0,0,100,0.00,40.00,10,6,13,0.00
2014-12-25,43,40,37,-100,0,200,0,0,100,0.00,40.00,12,6,12,0.00
2014-12-26,45,36,28,-100,0,200,0,0,100,0.00,40.00,4,2,8,0.00
2014-12-27,45,36,29,-100,0,200,0,0,100,0.00,40.00,3,1,5,0.00
2014-12-28,44,36,30,-100,0,200,0,0,100,0.00,40.00,7,4,8,0.00
2014-12-29,54,45,40,-100,0,200,0,0,100,0.00,40.00,12,8,12,0.00
2014-12-30,44,40,38,-100,0,200,0,0,100,0.00,40.00,7,5,14,0.00
2014-12-31,38,31,23,-100,0,200,0,0,100,0.00,40.00,5,3,6,0.00
2015-1-1,47,30,21,-100,0,200,0,0,100,0.00,40.00,5,2,6,0.00
2015-1-2,50,33,26,-100,0,200,0,0,100,0.00,40.00,3,2,5,0.00